Time;durP1;ratioP1;P1;durP2;ratioP2;P2;SDS_P1;SDS_P2;PMS_P1;PMS_P2;Temp;Humidity;BMP_temperature;BMP_pressure;BME280_temperature;BME280_humidity;BME280_pressure;Samples;Min_cycle;Max_cycle;Signal;HPM_P1;HPM_P2
2022/04/12 00:00:13;;;;;;;;;3.00;3.00;;;;;;;;5040751;28;9547;-76
2022/04/12 00:02:40;;;;;;;;;4.00;4.00;;;;;;;;5032766;28;9669;-75
2022/04/12 00:05:11;;;;;;;;;2.00;2.00;;;;;;;;5042489;28;9711;-76
2022/04/12 00:07:39;;;;;;;;;3.25;3.25;;;;;;;;5046154;28;9647;-75
2022/04/12 00:10:09;;;;;;;;;3.00;3.00;;;;;;;;5040782;28;9775;-76
2022/04/12 00:12:37;;;;;;;;;2.75;2.75;;;;;;;;5039428;28;9747;-75
2022/04/12 00:15:06;;;;;;;;;2.00;2.00;;;;;;;;5037060;28;9680;-75
2022/04/12 00:20:19;;;;;;;;;3.00;3.00;;;;;;;;5035609;28;9675;-75
2022/04/12 00:22:47;;;;;;;;;2.00;2.00;;;;;;;;5042260;28;9711;-75
2022/04/12 00:25:15;;;;;;;;;1.75;1.75;;;;;;;;5000506;28;9630;-76
2022/04/12 00:27:44;;;;;;;;;4.50;3.00;;;;;;;;5000118;28;9760;-76
2022/04/12 00:30:12;;;;;;;;;3.00;3.00;;;;;;;;4996240;28;9666;-75
2022/04/12 00:32:39;;;;;;;;;1.50;1.50;;;;;;;;4996690;28;9753;-76
2022/04/12 00:35:07;;;;;;;;;7.50;3.50;;;;;;;;4997394;28;9824;-77
2022/04/12 00:37:35;;;;;;;;;1.00;1.00;;;;;;;;4994258;28;9828;-76
2022/04/12 00:40:03;;;;;;;;;2.00;2.00;;;;;;;;5001132;28;9933;-76
2022/04/12 00:42:33;;;;;;;;;3.50;2.00;;;;;;;;4995739;28;9736;-77
2022/04/12 00:45:00;;;;;;;;;2.00;2.00;;;;;;;;5016777;28;10246;-75
2022/04/12 00:47:27;;;;;;;;;2.50;2.50;;;;;;;;4994946;28;9481;-76
2022/04/12 00:49:54;;;;;;;;;3.25;3.00;;;;;;;;4997977;28;9619;-75
2022/04/12 00:52:22;;;;;;;;;2.75;2.75;;;;;;;;4994751;28;9505;-75
2022/04/12 00:54:50;;;;;;;;;1.00;1.00;;;;;;;;4999364;28;9496;-76
2022/04/12 00:57:17;;;;;;;;;1.00;1.00;;;;;;;;5001979;28;9482;-74
2022/04/12 00:59:47;;;;;;;;;2.00;2.00;;;;;;;;4999040;28;9352;-77
2022/04/12 01:02:14;;;;;;;;;2.00;2.00;;;;;;;;4997930;28;9293;-75
2022/04/12 01:04:41;;;;;;;;;3.00;3.00;;;;;;;;5000652;28;10728;-76
2022/04/12 01:07:09;;;;;;;;;2.00;2.00;;;;;;;;5001226;28;9337;-77
2022/04/12 01:09:36;;;;;;;;;2.00;2.00;;;;;;;;4997301;28;9214;-77
2022/04/12 01:12:09;;;;;;;;;4.00;3.00;;;;;;;;4987051;28;9291;-75
2022/04/12 01:14:37;;;;;;;;;2.00;2.00;;;;;;;;4997148;28;9262;-75
2022/04/12 01:17:06;;;;;;;;;7.00;3.00;;;;;;;;4995557;28;9207;-74
2022/04/12 01:19:35;;;;;;;;;2.67;2.67;;;;;;;;4999490;28;9191;-76
2022/04/12 01:22:05;;;;;;;;;3.00;3.00;;;;;;;;4998470;28;9259;-76
2022/04/12 01:24:35;;;;;;;;;2.67;2.67;;;;;;;;5028626;28;9280;-74
2022/04/12 01:27:02;;;;;;;;;3.00;3.00;;;;;;;;5043618;28;9241;-75
2022/04/12 01:29:34;;;;;;;;;3.67;3.67;;;;;;;;5038423;28;9283;-74
2022/04/12 01:32:02;;;;;;;;;3.67;2.33;;;;;;;;5019969;28;9209;-74
2022/04/12 01:34:29;;;;;;;;;2.00;2.00;;;;;;;;5042489;28;9180;-74
2022/04/12 01:36:57;;;;;;;;;2.67;2.67;;;;;;;;5045202;28;9321;-75
2022/04/12 01:39:24;;;;;;;;;2.67;2.67;;;;;;;;5043723;28;9328;-76
2022/04/12 01:41:52;;;;;;;;;4.00;3.00;;;;;;;;5043839;28;9334;-75
2022/04/12 01:44:20;;;;;;;;;3.00;3.00;;;;;;;;5047335;28;9209;-76
2022/04/12 01:46:47;;;;;;;;;3.00;3.00;;;;;;;;5033582;28;9471;-74
2022/04/12 01:49:16;;;;;;;;;2.67;2.33;;;;;;;;5044686;28;9282;-74
2022/04/12 01:51:43;;;;;;;;;5.00;3.00;;;;;;;;5042108;28;9394;-74
2022/04/12 01:54:11;;;;;;;;;4.00;2.33;;;;;;;;5024888;28;9503;-75
2022/04/12 01:56:38;;;;;;;;;2.00;2.00;;;;;;;;5025843;28;9409;-75
2022/04/12 01:59:07;;;;;;;;;2.00;2.00;;;;;;;;5037856;28;9587;-75
2022/04/12 02:01:34;;;;;;;;;2.00;2.00;;;;;;;;5039163;28;9481;-76
2022/04/12 02:04:02;;;;;;;;;3.00;3.00;;;;;;;;5027995;28;9602;-76
2022/04/12 02:06:29;;;;;;;;;2.25;2.25;;;;;;;;5045767;28;10553;-75
2022/04/12 02:08:56;;;;;;;;;3.25;3.25;;;;;;;;5044995;28;9780;-75
2022/04/12 02:11:23;;;;;;;;;4.25;3.00;;;;;;;;5044143;28;9716;-76
2022/04/12 02:13:50;;;;;;;;;3.75;3.75;;;;;;;;5042878;28;9785;-76
2022/04/12 02:16:19;;;;;;;;;3.25;3.25;;;;;;;;5026641;28;10044;-75
2022/04/12 02:18:47;;;;;;;;;4.25;2.75;;;;;;;;5029348;28;9900;-74
2022/04/12 02:21:14;;;;;;;;;4.50;4.50;;;;;;;;5037185;28;9940;-75
2022/04/12 02:23:42;;;;;;;;;5.00;5.00;;;;;;;;5044714;28;10727;-75
2022/04/12 02:26:09;;;;;;;;;4.00;4.00;;;;;;;;5029745;28;9994;-75
2022/04/12 02:28:36;;;;;;;;;4.00;4.00;;;;;;;;5026605;28;9940;-75
2022/04/12 02:31:04;;;;;;;;;6.25;5.75;;;;;;;;5030665;28;9718;-75
2022/04/12 02:33:32;;;;;;;;;7.75;4.75;;;;;;;;5044569;28;9849;-76
2022/04/12 02:35:59;;;;;;;;;7.00;7.00;;;;;;;;5042935;28;10558;-74
2022/04/12 02:38:27;;;;;;;;;8.50;8.50;;;;;;;;5014719;28;10023;-76
2022/04/12 02:40:54;;;;;;;;;4.50;4.50;;;;;;;;5042569;28;10002;-76
2022/04/12 02:43:21;;;;;;;;;5.25;5.25;;;;;;;;5033371;28;10059;-75
2022/04/12 02:45:48;;;;;;;;;3.50;3.50;;;;;;;;5036410;28;9971;-74
2022/04/12 02:48:16;;;;;;;;;4.00;4.00;;;;;;;;5039050;28;9869;-74
2022/04/12 02:50:44;;;;;;;;;4.00;3.75;;;;;;;;5031660;28;9979;-76
2022/04/12 02:53:12;;;;;;;;;3.75;2.25;;;;;;;;5021729;28;9782;-75
2022/04/12 02:55:39;;;;;;;;;3.00;3.00;;;;;;;;5036625;28;10011;-77
2022/04/12 02:58:06;;;;;;;;;2.00;2.00;;;;;;;;5044190;28;9969;-75
2022/04/12 03:00:34;;;;;;;;;2.50;2.50;;;;;;;;5038637;28;9803;-74
2022/04/12 03:03:01;;;;;;;;;6.25;2.50;;;;;;;;5037581;28;9882;-75
2022/04/12 03:05:28;;;;;;;;;1.75;1.75;;;;;;;;5039822;28;9853;-74
2022/04/12 03:07:57;;;;;;;;;3.00;3.00;;;;;;;;5054297;28;10057;-75
2022/04/12 03:10:24;;;;;;;;;3.00;3.00;;;;;;;;5048482;28;9947;-75
2022/04/12 03:12:52;;;;;;;;;3.00;3.00;;;;;;;;5038313;28;9719;-77
2022/04/12 03:15:20;;;;;;;;;3.50;3.00;;;;;;;;5041943;28;10720;-77
2022/04/12 03:17:47;;;;;;;;;3.00;3.00;;;;;;;;5040416;28;9994;-74
2022/04/12 03:20:14;;;;;;;;;2.00;2.00;;;;;;;;5040642;28;9803;-74
2022/04/12 03:22:42;;;;;;;;;2.00;2.00;;;;;;;;5040673;28;9782;-74
2022/04/12 03:25:12;;;;;;;;;3.00;3.00;;;;;;;;5044397;28;9644;-75
2022/04/12 03:27:39;;;;;;;;;2.00;2.00;;;;;;;;5037404;28;9851;-73
2022/04/12 03:30:07;;;;;;;;;5.25;2.75;;;;;;;;5038754;28;9714;-75
2022/04/12 03:32:35;;;;;;;;;0.00;0.00;;;;;;;;5042473;28;9694;-74
2022/04/12 03:35:02;;;;;;;;;4.25;3.00;;;;;;;;5042755;28;9617;-75
2022/04/12 03:37:30;;;;;;;;;2.00;2.00;;;;;;;;5020956;28;10604;-74
2022/04/12 03:39:57;;;;;;;;;3.50;3.50;;;;;;;;5019131;28;9788;-76
2022/04/12 03:42:26;;;;;;;;;3.50;3.50;;;;;;;;5024078;28;9810;-77
2022/04/12 03:44:53;;;;;;;;;3.00;3.00;;;;;;;;5039443;28;9779;-76
2022/04/12 03:47:20;;;;;;;;;3.00;3.00;;;;;;;;5041783;28;9747;-75
2022/04/12 03:49:47;;;;;;;;;3.00;3.00;;;;;;;;5022615;28;10339;-74
2022/04/12 03:52:15;;;;;;;;;4.00;4.00;;;;;;;;5041454;28;9666;-73
2022/04/12 03:54:42;;;;;;;;;3.50;3.00;;;;;;;;5042798;28;9557;-74
2022/04/12 03:57:09;;;;;;;;;5.25;5.25;;;;;;;;5041518;28;9635;-75
2022/04/12 03:59:38;;;;;;;;;2.00;2.00;;;;;;;;5037948;28;9721;-74
2022/04/12 04:02:06;;;;;;;;;5.50;2.75;;;;;;;;5038106;28;9550;-75
2022/04/12 04:04:33;;;;;;;;;3.50;3.00;;;;;;;;5021382;28;10532;-76
2022/04/12 04:07:00;;;;;;;;;3.00;3.00;;;;;;;;5039237;28;9708;-75
2022/04/12 04:09:27;;;;;;;;;3.25;3.25;;;;;;;;5038034;28;9558;-72
2022/04/12 04:11:57;;;;;;;;;3.75;3.75;;;;;;;;5037782;28;9614;-78
2022/04/12 04:14:26;;;;;;;;;3.00;3.00;;;;;;;;5019273;28;9547;-76
2022/04/12 04:16:56;;;;;;;;;4.25;4.00;;;;;;;;5040277;28;9551;-75
2022/04/12 04:19:23;;;;;;;;;2.50;2.00;;;;;;;;5045745;28;9591;-75
2022/04/12 04:21:50;;;;;;;;;2.75;2.75;;;;;;;;5056531;28;9621;-75
2022/04/12 04:24:17;;;;;;;;;2.00;2.00;;;;;;;;5041819;28;9438;-73
2022/04/12 04:26:48;;;;;;;;;3.00;3.00;;;;;;;;5042672;28;9475;-74
2022/04/12 04:29:15;;;;;;;;;4.50;3.00;;;;;;;;5038649;28;9665;-75
2022/04/12 04:31:43;;;;;;;;;3.67;3.67;;;;;;;;5041416;28;9817;-75
2022/04/12 04:34:11;;;;;;;;;3.75;3.75;;;;;;;;5041378;28;9420;-75
2022/04/12 04:36:38;;;;;;;;;4.25;4.00;;;;;;;;5027091;28;9424;-75
2022/04/12 04:39:06;;;;;;;;;3.00;3.00;;;;;;;;5031448;28;9581;-74
2022/04/12 04:41:33;;;;;;;;;3.00;3.00;;;;;;;;5040219;28;9655;-75
2022/04/12 04:44:00;;;;;;;;;3.00;3.00;;;;;;;;5038663;28;9497;-75
2022/04/12 04:46:28;;;;;;;;;3.00;3.00;;;;;;;;5041071;28;9430;-74
2022/04/12 04:48:55;;;;;;;;;3.25;3.25;;;;;;;;5034397;28;9459;-76
2022/04/12 04:51:24;;;;;;;;;4.00;2.00;;;;;;;;5030979;28;9497;-74
2022/04/12 04:53:58;;;;;;;;;3.00;3.00;;;;;;;;5025464;28;9376;-74
2022/04/12 04:56:25;;;;;;;;;3.00;3.00;;;;;;;;5043406;28;9538;-75
2022/04/12 04:58:53;;;;;;;;;2.00;2.00;;;;;;;;5048037;28;9472;-74
2022/04/12 05:01:20;;;;;;;;;3.00;3.00;;;;;;;;5045216;28;9438;-74
2022/04/12 05:03:50;;;;;;;;;3.00;3.00;;;;;;;;5027710;28;10443;-77
2022/04/12 05:06:17;;;;;;;;;3.00;3.00;;;;;;;;5029326;28;9654;-75
2022/04/12 05:08:46;;;;;;;;;4.00;4.00;;;;;;;;5046964;28;9451;-75
2022/04/12 05:11:13;;;;;;;;;7.25;4.75;;;;;;;;5045109;28;9718;-75
2022/04/12 05:13:41;;;;;;;;;3.25;3.25;;;;;;;;5044623;28;9838;-74
2022/04/12 05:16:08;;;;;;;;;3.00;3.00;;;;;;;;5047381;28;9662;-75
2022/04/12 05:18:36;;;;;;;;;4.25;4.25;;;;;;;;5050535;28;9647;-75
2022/04/12 05:21:03;;;;;;;;;3.50;3.50;;;;;;;;5047749;28;9693;-74
2022/04/12 05:23:30;;;;;;;;;3.00;3.00;;;;;;;;5032952;28;10395;-78
2022/04/12 05:26:00;;;;;;;;;3.50;3.50;;;;;;;;5045033;28;9443;-80
2022/04/12 05:28:27;;;;;;;;;3.25;2.00;;;;;;;;5029502;28;9692;-80
2022/04/12 05:30:55;;;;;;;;;3.75;3.75;;;;;;;;5030279;28;9618;-81
2022/04/12 05:33:23;;;;;;;;;2.00;2.00;;;;;;;;5040390;28;9538;-82
2022/04/12 05:35:50;;;;;;;;;2.00;2.00;;;;;;;;5045446;28;9614;-82
2022/04/12 05:38:17;;;;;;;;;2.00;2.00;;;;;;;;5047341;28;9468;-82
2022/04/12 05:40:45;;;;;;;;;4.00;4.00;;;;;;;;5049052;28;9400;-83
2022/04/12 05:43:14;;;;;;;;;4.00;3.00;;;;;;;;5050987;28;9449;-83
2022/04/12 05:45:41;;;;;;;;;3.00;3.00;;;;;;;;5046413;28;9476;-83
2022/04/12 05:48:09;;;;;;;;;4.00;2.25;;;;;;;;5045534;28;9598;-81
2022/04/12 05:50:36;;;;;;;;;4.00;2.25;;;;;;;;5044008;28;9501;-82
2022/04/12 05:53:03;;;;;;;;;4.00;4.00;;;;;;;;5032359;28;9492;-83
2022/04/12 05:55:31;;;;;;;;;2.00;2.00;;;;;;;;5047089;28;9674;-83
2022/04/12 05:58:00;;;;;;;;;3.00;1.50;;;;;;;;5046274;28;10237;-82
2022/04/12 06:00:32;;;;;;;;;5.00;4.00;;;;;;;;5044322;28;9494;-83
2022/04/12 06:03:00;;;;;;;;;2.75;2.75;;;;;;;;5045645;28;9629;-82
2022/04/12 06:05:30;;;;;;;;;5.50;3.00;;;;;;;;5046124;28;9648;-82
2022/04/12 06:07:59;;;;;;;;;2.00;2.00;;;;;;;;5055252;28;9390;-83
2022/04/12 06:10:26;;;;;;;;;2.50;2.50;;;;;;;;5048307;28;9534;-83
2022/04/12 06:12:54;;;;;;;;;3.00;3.00;;;;;;;;5044611;28;9414;-81
2022/04/12 06:15:21;;;;;;;;;5.00;3.00;;;;;;;;5045766;28;9594;-82
2022/04/12 06:17:49;;;;;;;;;2.33;2.33;;;;;;;;5043837;28;9496;-82
2022/04/12 06:20:18;;;;;;;;;3.75;3.00;;;;;;;;5045495;28;9333;-82
2022/04/12 06:22:46;;;;;;;;;2.25;2.25;;;;;;;;5028042;28;10197;-81
2022/04/12 06:25:16;;;;;;;;;1.67;1.67;;;;;;;;5002196;28;9444;-87
2022/04/12 06:27:50;;;;;;;;;3.33;2.00;;;;;;;;4991899;28;9382;-91
2022/04/12 06:30:19;;;;;;;;;1.33;1.33;;;;;;;;5012690;28;9340;-86
2022/04/12 06:32:49;;;;;;;;;3.00;3.00;;;;;;;;5003406;28;9250;-86
2022/04/12 06:35:17;;;;;;;;;2.33;2.33;;;;;;;;4995734;28;9299;-86
2022/04/12 06:37:47;;;;;;;;;4.67;3.00;;;;;;;;5006146;28;9213;-85
2022/04/12 06:40:19;;;;;;;;;2.67;2.00;;;;;;;;5003533;28;9231;-89
2022/04/12 06:42:47;;;;;;;;;3.00;3.00;;;;;;;;4995901;28;9387;-86
2022/04/12 06:45:15;;;;;;;;;4.00;3.00;;;;;;;;5001693;28;9118;-83
2022/04/12 06:47:43;;;;;;;;;2.00;2.00;;;;;;;;5003354;28;9146;-83
2022/04/12 06:50:15;;;;;;;;;2.25;2.25;;;;;;;;5003596;28;8873;-83
2022/04/12 06:52:43;;;;;;;;;2.00;2.00;;;;;;;;5004794;28;8872;-84
2022/04/12 06:55:10;;;;;;;;;2.33;2.33;;;;;;;;4999013;28;8982;-81
2022/04/12 06:57:38;;;;;;;;;3.33;2.33;;;;;;;;5003037;28;8947;-82
2022/04/12 07:00:08;;;;;;;;;1.00;1.00;;;;;;;;5005165;28;9036;-84
2022/04/12 07:02:36;;;;;;;;;3.33;2.00;;;;;;;;5007454;28;8987;-91
2022/04/12 07:05:03;;;;;;;;;2.00;2.00;;;;;;;;5007020;28;8963;-86
2022/04/12 07:07:36;;;;;;;;;3.00;3.00;;;;;;;;5009933;28;9065;-91
2022/04/12 07:10:03;;;;;;;;;2.33;2.33;;;;;;;;5002406;28;9118;-83
2022/04/12 07:12:31;;;;;;;;;4.00;2.00;;;;;;;;4993525;28;9043;-88
2022/04/12 07:14:59;;;;;;;;;3.00;3.00;;;;;;;;5003583;28;8965;-86
2022/04/12 07:17:26;;;;;;;;;5.00;3.50;;;;;;;;5001631;28;9137;-81
2022/04/12 07:19:54;;;;;;;;;2.00;2.00;;;;;;;;5003853;28;8926;-84
2022/04/12 07:22:21;;;;;;;;;2.00;2.00;;;;;;;;4984599;28;8871;-81
2022/04/12 07:24:50;;;;;;;;;4.00;3.00;;;;;;;;5020614;28;8900;-83
2022/04/12 07:27:17;;;;;;;;;3.00;3.00;;;;;;;;5024295;28;9007;-83
2022/04/12 07:29:45;;;;;;;;;4.00;2.50;;;;;;;;5023270;28;9766;-81
2022/04/12 07:32:12;;;;;;;;;3.00;3.00;;;;;;;;5017771;28;8838;-81
2022/04/12 07:34:42;;;;;;;;;2.25;1.75;;;;;;;;5026884;28;8961;-82
2022/04/12 07:37:09;;;;;;;;;5.00;3.00;;;;;;;;5014881;28;8897;-81
2022/04/12 07:39:36;;;;;;;;;2.00;2.00;;;;;;;;5021519;28;8862;-83
2022/04/12 07:42:06;;;;;;;;;2.00;2.00;;;;;;;;5022794;28;8877;-89
2022/04/12 07:44:34;;;;;;;;;2.00;2.00;;;;;;;;5023425;28;8888;-88
2022/04/12 07:47:02;;;;;;;;;1.00;1.00;;;;;;;;5024069;28;8896;-87
2022/04/12 07:49:29;;;;;;;;;1.00;1.00;;;;;;;;5026020;28;8849;-85
2022/04/12 07:51:57;;;;;;;;;3.00;3.00;;;;;;;;5006333;28;8886;-88
2022/04/12 07:54:24;;;;;;;;;2.50;2.50;;;;;;;;5024488;28;8862;-88
2022/04/12 07:56:51;;;;;;;;;3.00;3.00;;;;;;;;5023314;28;8888;-88
2022/04/12 07:59:20;;;;;;;;;2.75;2.75;;;;;;;;5024522;28;8961;-88
2022/04/12 08:01:48;;;;;;;;;2.75;2.75;;;;;;;;5031980;28;8944;-85
2022/04/12 08:04:16;;;;;;;;;1.00;1.00;;;;;;;;5033242;28;9012;-86
2022/04/12 08:06:43;;;;;;;;;4.75;4.75;;;;;;;;5023532;28;8884;-84
2022/04/12 08:09:11;;;;;;;;;2.00;2.00;;;;;;;;5023365;28;8949;-84
2022/04/12 08:11:38;;;;;;;;;1.00;1.00;;;;;;;;5023463;28;8963;-87
2022/04/12 08:14:06;;;;;;;;;2.75;2.50;;;;;;;;5023838;28;8874;-81
2022/04/12 08:16:35;;;;;;;;;2.00;2.00;;;;;;;;5020625;28;8874;-83
2022/04/12 08:19:02;;;;;;;;;4.25;4.25;;;;;;;;5017885;28;8875;-82
2022/04/12 08:21:38;;;;;;;;;2.00;2.00;;;;;;;;5020484;28;9677;-82
2022/04/12 08:24:12;;;;;;;;;3.75;2.00;;;;;;;;5029755;28;8860;-84
2022/04/12 08:26:40;;;;;;;;;2.00;2.00;;;;;;;;5042614;28;8855;-81
2022/04/12 08:29:07;;;;;;;;;2.25;2.25;;;;;;;;5037145;28;8868;-84
2022/04/12 08:31:36;;;;;;;;;3.50;3.50;;;;;;;;5035302;28;8828;-85
2022/04/12 08:34:03;;;;;;;;;4.00;4.00;;;;;;;;5041366;28;8894;-81
2022/04/12 08:36:31;;;;;;;;;4.00;4.00;;;;;;;;5042708;28;8910;-85
2022/04/12 08:38:58;;;;;;;;;4.00;2.50;;;;;;;;5040236;28;8894;-81
2022/04/12 08:41:26;;;;;;;;;3.75;3.75;;;;;;;;5038116;28;8882;-84
2022/04/12 08:43:57;;;;;;;;;3.00;3.00;;;;;;;;5041602;28;8859;-91
2022/04/12 08:46:27;;;;;;;;;4.33;4.33;;;;;;;;5038117;28;8893;-81
2022/04/12 08:48:57;;;;;;;;;3.00;3.00;;;;;;;;5041262;28;8888;-82
2022/04/12 08:51:27;;;;;;;;;4.00;3.25;;;;;;;;5039524;28;8878;-79
2022/04/12 08:53:56;;;;;;;;;8.00;5.00;;;;;;;;5034273;28;8899;-81
2022/04/12 08:56:24;;;;;;;;;2.50;2.50;;;;;;;;5036164;28;8933;-80
2022/04/12 08:58:52;;;;;;;;;3.75;3.75;;;;;;;;5041005;28;8998;-78
2022/04/12 09:01:19;;;;;;;;;4.00;3.00;;;;;;;;5022248;28;8817;-79
2022/04/12 09:03:47;;;;;;;;;5.75;3.75;;;;;;;;5029357;28;8856;-82
2022/04/12 09:06:17;;;;;;;;;5.50;3.50;;;;;;;;5037714;28;8910;-79
2022/04/12 09:08:45;;;;;;;;;4.00;3.25;;;;;;;;5044624;28;8866;-79
2022/04/12 09:11:12;;;;;;;;;6.25;4.75;;;;;;;;5038582;28;8894;-79
2022/04/12 09:13:40;;;;;;;;;3.75;3.75;;;;;;;;5040691;28;8979;-84
2022/04/12 09:16:09;;;;;;;;;5.25;4.50;;;;;;;;5039951;28;8903;-81
2022/04/12 09:18:38;;;;;;;;;3.75;3.75;;;;;;;;5043202;28;8941;-81
2022/04/12 09:21:13;;;;;;;;;3.25;3.25;;;;;;;;5042593;28;8840;-83
2022/04/12 09:23:44;;;;;;;;;3.00;3.00;;;;;;;;5040279;28;8982;-84
2022/04/12 09:26:17;;;;;;;;;3.75;3.75;;;;;;;;5037979;28;8851;-83
2022/04/12 09:28:45;;;;;;;;;2.00;2.00;;;;;;;;5031549;28;8896;-84
2022/04/12 09:31:16;;;;;;;;;3.00;3.00;;;;;;;;5027653;28;8828;-84
2022/04/12 09:33:44;;;;;;;;;3.00;3.00;;;;;;;;5041338;28;8894;-82
2022/04/12 09:36:12;;;;;;;;;4.00;4.00;;;;;;;;5039193;28;8883;-86
2022/04/12 09:38:41;;;;;;;;;2.50;2.50;;;;;;;;5040626;28;8886;-84
2022/04/12 09:41:30;;;;;;;;;5.25;3.00;;;;;;;;5040219;28;8883;-85
2022/04/12 09:44:05;;;;;;;;;4.00;4.00;;;;;;;;5039925;28;8890;-84
2022/04/12 09:46:34;;;;;;;;;3.00;3.00;;;;;;;;5045363;28;8864;-84
2022/04/12 09:49:01;;;;;;;;;5.75;3.00;;;;;;;;5045687;28;8844;-84
2022/04/12 09:51:29;;;;;;;;;4.00;4.00;;;;;;;;5045689;28;8868;-87
2022/04/12 09:53:56;;;;;;;;;3.75;3.75;;;;;;;;5043812;28;8987;-87
2022/04/12 09:56:25;;;;;;;;;3.00;3.00;;;;;;;;5046164;28;8860;-81
2022/04/12 09:58:56;;;;;;;;;3.00;3.00;;;;;;;;5039515;28;8886;-84
2022/04/12 10:01:25;;;;;;;;;4.40;3.00;;;;;;;;5043777;28;8947;-85
2022/04/12 10:03:54;;;;;;;;;4.60;3.00;;;;;;;;5044864;28;8882;-84
2022/04/12 10:06:24;;;;;;;;;3.00;3.00;;;;;;;;5045033;28;8856;-85
2022/04/12 10:08:54;;;;;;;;;2.80;2.80;;;;;;;;5027473;28;8840;-84
2022/04/12 10:11:22;;;;;;;;;2.80;2.00;;;;;;;;5042201;28;9018;-83
2022/04/12 10:13:50;;;;;;;;;3.00;3.00;;;;;;;;5045724;28;9652;-84
2022/04/12 10:16:21;;;;;;;;;2.00;2.00;;;;;;;;5035979;28;8853;-80
2022/04/12 10:18:49;;;;;;;;;1.20;1.20;;;;;;;;5042229;28;9668;-78
2022/04/12 10:21:19;;;;;;;;;2.20;2.20;;;;;;;;5041537;28;9282;-78
2022/04/12 10:23:51;;;;;;;;;1.80;1.80;;;;;;;;5040403;28;9606;-80
2022/04/12 10:26:21;;;;;;;;;2.00;2.00;;;;;;;;5023256;28;9610;-77
2022/04/12 10:28:52;;;;;;;;;3.20;2.20;;;;;;;;5015187;28;8996;-79
2022/04/12 10:31:23;;;;;;;;;2.00;2.00;;;;;;;;5040046;28;8822;-80
2022/04/12 10:34:04;;;;;;;;;2.00;2.00;;;;;;;;5034283;28;9695;-80
2022/04/12 10:37:11;;;;;;;;;2.00;2.00;;;;;;;;5044597;28;9751;-78
2022/04/12 10:39:44;;;;;;;;;2.40;2.40;;;;;;;;5033425;28;8843;-85
2022/04/12 10:42:14;;;;;;;;;1.60;1.60;;;;;;;;5041307;28;8882;-81
2022/04/12 10:44:46;;;;;;;;;1.20;1.20;;;;;;;;5039869;28;8933;-82
2022/04/12 10:47:27;;;;;;;;;3.00;3.00;;;;;;;;5039150;28;8872;-79
2022/04/12 10:49:59;;;;;;;;;1.40;1.40;;;;;;;;5036291;28;8880;-83
2022/04/12 10:52:38;;;;;;;;;2.80;2.00;;;;;;;;5042087;28;8918;-83
2022/04/12 10:55:08;;;;;;;;;1.00;1.00;;;;;;;;5022514;28;8967;-80
2022/04/12 10:57:36;;;;;;;;;2.40;2.40;;;;;;;;5038999;28;8882;-80
2022/04/12 11:00:09;;;;;;;;;1.60;1.60;;;;;;;;5036839;28;8959;-82
2022/04/12 11:02:43;;;;;;;;;3.00;3.00;;;;;;;;5021011;28;8806;-83
2022/04/12 11:05:55;;;;;;;;;1.00;1.00;;;;;;;;5016913;28;8882;-85
2022/04/12 11:08:47;;;;;;;;;3.00;1.60;;;;;;;;4959537;28;8883;-85
2022/04/12 11:11:19;;;;;;;;;2.60;2.60;;;;;;;;5039979;28;8856;-83
2022/04/12 11:13:49;;;;;;;;;3.80;2.80;;;;;;;;5039395;28;8869;-80
2022/04/12 11:16:19;;;;;;;;;5.00;3.00;;;;;;;;5026171;28;8984;-81
2022/04/12 11:18:49;;;;;;;;;2.40;2.00;;;;;;;;5029403;28;8849;-83
2022/04/12 11:21:18;;;;;;;;;3.00;3.00;;;;;;;;5024546;28;8878;-82
2022/04/12 11:23:47;;;;;;;;;2.80;2.80;;;;;;;;5020783;28;8875;-81
2022/04/12 11:26:38;;;;;;;;;2.40;1.60;;;;;;;;5023739;28;8885;-82
2022/04/12 11:29:09;;;;;;;;;4.60;2.60;;;;;;;;5021496;28;9021;-79
2022/04/12 11:31:41;;;;;;;;;2.20;2.20;;;;;;;;5032874;28;8812;-81
2022/04/12 11:34:11;;;;;;;;;1.60;1.60;;;;;;;;5027903;28;8862;-77
2022/04/12 11:36:39;;;;;;;;;3.00;2.20;;;;;;;;5027832;28;8987;-78
2022/04/12 11:39:07;;;;;;;;;3.20;2.40;;;;;;;;5020097;28;8864;-81
2022/04/12 11:41:35;;;;;;;;;3.00;3.00;;;;;;;;5016397;28;8870;-81
2022/04/12 11:44:05;;;;;;;;;2.60;2.60;;;;;;;;5039894;28;8940;-80
2022/04/12 11:46:33;;;;;;;;;3.00;2.80;;;;;;;;5006560;28;8866;-80
2022/04/12 11:49:09;;;;;;;;;2.00;2.00;;;;;;;;5021104;28;8848;-80
2022/04/12 11:51:42;;;;;;;;;1.00;1.00;;;;;;;;5017540;28;9474;-80
2022/04/12 11:54:24;;;;;;;;;3.00;2.00;;;;;;;;5031389;28;8858;-80
2022/04/12 11:57:09;;;;;;;;;3.20;2.00;;;;;;;;5006007;28;8834;-81
2022/04/12 11:59:38;;;;;;;;;2.20;2.20;;;;;;;;5011389;28;8876;-81
2022/04/12 12:02:07;;;;;;;;;1.40;1.40;;;;;;;;5017471;28;8798;-81
2022/04/12 12:04:37;;;;;;;;;0.80;0.80;;;;;;;;5023449;28;8943;-81
2022/04/12 12:07:06;;;;;;;;;1.80;1.80;;;;;;;;5020717;28;8869;-82
2022/04/12 12:09:35;;;;;;;;;1.80;1.80;;;;;;;;5022265;28;8908;-81
2022/04/12 12:12:05;;;;;;;;;2.00;2.00;;;;;;;;5024116;28;8873;-79
2022/04/12 12:14:33;;;;;;;;;1.00;1.00;;;;;;;;5022453;28;8879;-81
2022/04/12 12:17:02;;;;;;;;;2.60;1.40;;;;;;;;5016783;28;8865;-80
2022/04/12 12:19:33;;;;;;;;;1.00;1.00;;;;;;;;5023682;28;9534;-80
2022/04/12 12:22:03;;;;;;;;;2.60;2.60;;;;;;;;5024666;28;8869;-81
2022/04/12 12:24:37;;;;;;;;;3.00;1.00;;;;;;;;5024167;28;9016;-81
2022/04/12 12:27:09;;;;;;;;;2.20;2.20;;;;;;;;5023881;28;8921;-81
2022/04/12 12:29:38;;;;;;;;;3.20;2.60;;;;;;;;5022931;28;8975;-80
2022/04/12 12:32:07;;;;;;;;;3.00;3.00;;;;;;;;5013843;28;8820;-80
2022/04/12 12:34:37;;;;;;;;;1.80;1.80;;;;;;;;5021191;28;9020;-80
2022/04/12 12:37:14;;;;;;;;;1.60;1.60;;;;;;;;5027899;28;8915;-80
2022/04/12 12:39:42;;;;;;;;;1.80;1.80;;;;;;;;5023640;28;9008;-80
2022/04/12 12:42:10;;;;;;;;;2.20;2.20;;;;;;;;5021812;28;8904;-80
2022/04/12 12:44:38;;;;;;;;;1.40;1.40;;;;;;;;5023458;28;8888;-80
2022/04/12 12:47:09;;;;;;;;;2.00;2.00;;;;;;;;5022318;28;8870;-81
2022/04/12 12:49:37;;;;;;;;;3.40;2.00;;;;;;;;5024623;28;8888;-81
2022/04/12 12:52:07;;;;;;;;;1.80;1.80;;;;;;;;5023976;28;8877;-81
2022/04/12 12:54:36;;;;;;;;;1.80;1.80;;;;;;;;5022406;28;8881;-81
2022/04/12 12:57:05;;;;;;;;;0.00;0.00;;;;;;;;5024805;28;8865;-80
2022/04/12 12:59:34;;;;;;;;;2.60;2.60;;;;;;;;5021247;28;8912;-81
2022/04/12 13:02:09;;;;;;;;;1.60;1.60;;;;;;;;5022845;28;8806;-82
2022/04/12 13:04:38;;;;;;;;;3.60;2.00;;;;;;;;5020608;28;8886;-81
2022/04/12 13:07:07;;;;;;;;;4.00;2.80;;;;;;;;5015027;28;9618;-80
2022/04/12 13:09:42;;;;;;;;;1.60;1.60;;;;;;;;5023000;28;8935;-81
2022/04/12 13:12:12;;;;;;;;;1.80;1.80;;;;;;;;5023004;28;8876;-81
2022/04/12 13:14:42;;;;;;;;;3.00;2.40;;;;;;;;5024971;28;8897;-80
2022/04/12 13:17:10;;;;;;;;;1.80;1.80;;;;;;;;5021206;28;8888;-81
2022/04/12 13:19:38;;;;;;;;;1.60;1.60;;;;;;;;5026392;28;8885;-81
2022/04/12 13:22:06;;;;;;;;;2.80;2.80;;;;;;;;5025171;28;8865;-80
2022/04/12 13:24:37;;;;;;;;;1.00;1.00;;;;;;;;5026274;28;8914;-81
2022/04/12 13:27:04;;;;;;;;;2.40;2.40;;;;;;;;5027058;28;8864;-81
2022/04/12 13:29:32;;;;;;;;;1.60;1.60;;;;;;;;5024800;28;8889;-81
2022/04/12 13:32:00;;;;;;;;;2.60;0.60;;;;;;;;5026335;28;8905;-81
2022/04/12 13:34:27;;;;;;;;;1.80;0.60;;;;;;;;5029085;28;8978;-81
2022/04/12 13:36:55;;;;;;;;;1.00;1.00;;;;;;;;5028974;28;8896;-81
2022/04/12 13:39:22;;;;;;;;;2.00;2.00;;;;;;;;5024096;28;8880;-80
2022/04/12 13:41:51;;;;;;;;;2.00;2.00;;;;;;;;5025785;28;8861;-81
2022/04/12 13:44:19;;;;;;;;;1.20;1.20;;;;;;;;5026413;28;9710;-80
2022/04/12 13:46:46;;;;;;;;;2.00;2.00;;;;;;;;5024560;28;8869;-80
2022/04/12 13:49:14;;;;;;;;;2.60;1.60;;;;;;;;5025639;28;8849;-80
2022/04/12 13:51:41;;;;;;;;;2.60;2.40;;;;;;;;5025095;28;8906;-80
2022/04/12 13:54:08;;;;;;;;;2.60;1.40;;;;;;;;5025305;28;8885;-79
2022/04/12 13:56:36;;;;;;;;;3.80;3.80;;;;;;;;5009177;28;8897;-79
2022/04/12 13:59:04;;;;;;;;;2.40;2.00;;;;;;;;5024872;28;8915;-79
2022/04/12 14:01:32;;;;;;;;;2.40;2.40;;;;;;;;5024163;28;8798;-80
2022/04/12 14:03:59;;;;;;;;;2.80;2.20;;;;;;;;5025397;28;8907;-80
2022/04/12 14:06:26;;;;;;;;;4.80;4.80;;;;;;;;5025464;28;8865;-80
2022/04/12 14:08:54;;;;;;;;;4.60;4.00;;;;;;;;5024862;28;8869;-79
2022/04/12 14:11:21;;;;;;;;;3.40;3.40;;;;;;;;5026153;28;8846;-79
2022/04/12 14:13:49;;;;;;;;;2.40;2.40;;;;;;;;5018887;28;9011;-79
2022/04/12 14:16:18;;;;;;;;;3.60;2.00;;;;;;;;5016836;28;8931;-80
2022/04/12 14:18:46;;;;;;;;;3.00;3.00;;;;;;;;5024156;28;9588;-80
2022/04/12 14:21:14;;;;;;;;;2.80;2.20;;;;;;;;5025718;28;8896;-80
2022/04/12 14:23:43;;;;;;;;;2.40;2.40;;;;;;;;5025368;28;9004;-80
2022/04/12 14:26:10;;;;;;;;;2.80;2.80;;;;;;;;5024060;28;8896;-80
2022/04/12 14:28:38;;;;;;;;;2.00;2.00;;;;;;;;5025802;28;8881;-80
2022/04/12 14:31:07;;;;;;;;;2.00;1.80;;;;;;;;5014695;28;8822;-80
2022/04/12 14:33:37;;;;;;;;;2.60;2.60;;;;;;;;5009484;28;8974;-80
2022/04/12 14:36:04;;;;;;;;;2.40;2.40;;;;;;;;5065493;28;8874;-81
2022/04/12 14:38:32;;;;;;;;;2.20;2.20;;;;;;;;5023997;28;8896;-80
2022/04/12 14:40:59;;;;;;;;;6.40;3.60;;;;;;;;5024491;28;8861;-81
2022/04/12 14:43:27;;;;;;;;;2.40;2.40;;;;;;;;5024103;28;8878;-80
2022/04/12 14:45:55;;;;;;;;;2.00;2.00;;;;;;;;5024787;28;9654;-80
2022/04/12 14:48:23;;;;;;;;;2.00;2.00;;;;;;;;5015643;28;8891;-81
2022/04/12 14:50:55;;;;;;;;;4.00;3.00;;;;;;;;5023860;28;9718;-80
2022/04/12 14:53:23;;;;;;;;;4.00;2.20;;;;;;;;5023401;28;8891;-80
2022/04/12 14:55:51;;;;;;;;;3.00;2.00;;;;;;;;5025001;28;8889;-80
2022/04/12 14:58:19;;;;;;;;;2.80;1.60;;;;;;;;5024371;28;8996;-80
2022/04/12 15:00:47;;;;;;;;;3.60;1.60;;;;;;;;5022425;28;8828;-79
2022/04/12 15:03:14;;;;;;;;;1.00;1.00;;;;;;;;5025538;28;9004;-80
2022/04/12 15:05:41;;;;;;;;;3.20;1.80;;;;;;;;5015901;28;8874;-80
2022/04/12 15:08:11;;;;;;;;;2.60;1.60;;;;;;;;5025014;28;8996;-80